Time;durP1;ratioP1;P1;durP2;ratioP2;P2;SDS_P1;SDS_P2;PMS_P1;PMS_P2;Temp;Humidity;BMP_temperature;BMP_pressure;BME280_temperature;BME280_humidity;BME280_pressure;Samples;Min_cycle;Max_cycle;Signal;HPM_P1;HPM_P2
2022/05/21 00:00:37;;;;;;;6.10;4.33;;;;;;;14.51;67.63;100991.34;5037644;28;20425;-67
2022/05/21 00:03:03;;;;;;;6.60;4.20;;;;;;;14.25;69.22;100989.66;5037387;28;20182;-70
2022/05/21 00:05:30;;;;;;;7.23;4.70;;;;;;;14.33;68.53;101003.63;5037516;28;20474;-68
2022/05/21 00:07:55;;;;;;;7.60;4.80;;;;;;;14.47;68.33;101009.69;5037756;28;20774;-68
2022/05/21 00:10:23;;;;;;;7.00;4.83;;;;;;;14.35;68.71;101012.34;5037283;28;20524;-69
2022/05/21 00:12:48;;;;;;;10.00;4.57;;;;;;;14.15;69.20;101018.50;5037268;28;20217;-68
2022/05/21 00:15:16;;;;;;;4.80;4.10;;;;;;;14.52;68.61;101014.94;5037673;28;20814;-69
2022/05/21 00:17:41;;;;;;;4.77;4.37;;;;;;;13.74;69.72;101026.34;5036926;28;20236;-69
2022/05/21 00:20:47;;;;;;;6.57;4.17;;;;;;;14.21;69.86;101024.63;5037333;28;20795;-67
2022/05/21 00:22:53;;;;;;;6.57;4.80;;;;;;;14.06;68.91;101034.22;5037304;28;20544;-68
2022/05/21 00:25:19;;;;;;;6.20;4.53;;;;;;;13.65;70.11;101032.44;5038866;28;20409;-66
2022/05/21 00:27:44;;;;;;;6.80;4.97;;;;;;;13.56;70.04;101041.16;5040139;28;20201;-66
2022/05/21 00:30:10;;;;;;;7.03;4.70;;;;;;;13.79;69.63;101035.97;5040773;28;20170;-65
2022/05/21 00:32:35;;;;;;;5.97;4.97;;;;;;;13.87;69.98;101043.84;5040541;28;20433;-66
2022/05/21 00:35:00;;;;;;;6.90;4.90;;;;;;;13.68;70.15;101040.31;5040281;28;20174;-68
2022/05/21 00:37:25;;;;;;;6.27;4.67;;;;;;;13.74;70.42;101045.56;5040644;28;20522;-68
2022/05/21 00:39:51;;;;;;;6.17;4.80;;;;;;;13.59;70.83;101048.16;5040682;28;20170;-68
2022/05/21 00:42:16;;;;;;;7.43;5.00;;;;;;;13.57;71.04;101042.03;5040134;28;20171;-67
2022/05/21 00:44:41;;;;;;;6.07;4.83;;;;;;;13.94;70.28;101047.34;5040168;28;20566;-69
2022/05/21 00:47:07;;;;;;;6.10;5.20;;;;;;;13.90;70.35;101050.81;5040447;28;20218;-67
2022/05/21 00:49:34;;;;;;;7.77;5.53;;;;;;;13.78;70.29;101054.31;5040788;28;20176;-67
2022/05/21 00:52:10;;;;;;;7.57;5.70;;;;;;;13.83;71.16;101065.66;5039631;28;20167;-68
2022/05/21 00:54:46;;;;;;;8.00;5.70;;;;;;;13.76;71.09;101069.13;5039791;28;20769;-68
2022/05/21 00:57:25;;;;;;;7.37;5.40;;;;;;;13.85;70.98;101074.38;5040151;28;20391;-68
2022/05/21 00:59:54;;;;;;;7.37;5.87;;;;;;;14.04;70.22;101064.78;5039349;28;20412;-68
2022/05/21 01:02:27;;;;;;;8.33;5.50;;;;;;;13.73;71.06;101070.00;5039393;28;20409;-68
2022/05/21 01:04:56;;;;;;;7.00;5.07;;;;;;;13.69;72.17;101063.00;5040150;28;20473;-69
2022/05/21 01:07:23;;;;;;;8.40;6.07;;;;;;;13.70;71.78;101070.00;5039147;28;20398;-68
2022/05/21 01:09:54;;;;;;;7.33;6.00;;;;;;;13.77;72.15;101069.16;5039728;28;20414;-67
2022/05/21 01:12:22;;;;;;;8.70;5.93;;;;;;;13.60;71.72;101068.25;5039244;28;20800;-67
2022/05/21 01:14:50;;;;;;;10.20;6.07;;;;;;;13.41;73.10;101080.38;5039889;28;20707;-67
2022/05/21 01:17:17;;;;;;;9.33;6.53;;;;;;;13.35;72.90;101088.22;5038847;28;20434;-69
2022/05/21 01:19:57;;;;;;;6.37;5.73;;;;;;;13.67;72.57;101088.34;5039536;28;20496;-72
2022/05/21 01:22:30;;;;;;;7.53;5.37;;;;;;;13.59;72.52;101088.31;5039015;28;20415;-69
2022/05/21 01:24:55;;;;;;;10.83;5.23;;;;;;;13.43;72.62;101097.00;5039145;28;20657;-69
2022/05/21 01:27:22;;;;;;;6.93;5.37;;;;;;;13.47;73.19;101091.75;5039822;28;20390;-69
2022/05/21 01:29:50;;;;;;;7.57;5.40;;;;;;;13.17;73.07;101104.72;5039631;28;20170;-68
2022/05/21 01:32:17;;;;;;;5.83;5.23;;;;;;;13.28;73.62;101105.63;5039160;28;20380;-70
2022/05/21 01:34:42;;;;;;;9.30;5.43;;;;;;;13.14;73.58;101109.06;5039188;28;20395;-69
2022/05/21 01:37:08;;;;;;;7.60;5.27;;;;;;;13.25;73.09;101109.13;5039457;28;20462;-70
2022/05/21 01:39:33;;;;;;;6.37;5.67;;;;;;;13.30;73.25;101111.75;5039545;28;20586;-70
2022/05/21 01:41:58;;;;;;;8.73;5.87;;;;;;;13.24;73.98;101109.09;5038655;28;20434;-70
2022/05/21 01:44:39;;;;;;;8.60;5.77;;;;;;;13.43;73.52;101108.34;5038844;28;20462;-75
2022/05/21 01:47:09;;;;;;;6.20;5.53;;;;;;;13.75;72.70;101118.06;5039248;28;20543;-71
2022/05/21 01:49:35;;;;;;;8.27;6.23;;;;;;;13.37;73.20;101117.91;5039079;28;20413;-70
2022/05/21 01:52:02;;;;;;;10.40;6.90;;;;;;;13.61;73.28;101107.53;5039844;28;20466;-70
2022/05/21 01:54:28;;;;;;;10.00;6.07;;;;;;;13.78;73.74;101115.44;5038491;28;20425;-71
2022/05/21 01:56:53;;;;;;;6.90;6.20;;;;;;;13.57;74.31;101118.88;5039290;28;20663;-71
2022/05/21 01:59:19;;;;;;;7.20;6.60;;;;;;;13.93;72.96;101124.22;5039777;28;20194;-72
2022/05/21 02:01:44;;;;;;;7.20;6.50;;;;;;;14.14;72.92;101129.50;5039046;28;20193;-71
2022/05/21 02:04:09;;;;;;;8.30;6.60;;;;;;;14.06;73.50;101130.34;5039202;28;20170;-72
2022/05/21 02:06:35;;;;;;;8.17;6.50;;;;;;;13.81;73.94;101131.19;5039500;28;20170;-71
2022/05/21 02:09:00;;;;;;;8.50;7.20;;;;;;;13.68;74.17;101142.50;5039060;28;20250;-72
2022/05/21 02:11:25;;;;;;;10.20;8.00;;;;;;;13.72;74.42;101135.50;5038966;28;20170;-71
2022/05/21 02:13:51;;;;;;;8.40;7.63;;;;;;;13.63;74.62;101146.84;5039053;28;20190;-72
2022/05/21 02:16:16;;;;;;;7.80;7.07;;;;;;;13.77;74.45;101139.91;5038809;28;20205;-71
2022/05/21 02:18:41;;;;;;;6.93;6.23;;;;;;;13.62;74.53;101151.19;5038537;28;20276;-72
2022/05/21 02:21:07;;;;;;;6.90;6.20;;;;;;;13.69;74.40;101148.59;5039004;28;20170;-71
2022/05/21 02:23:33;;;;;;;6.60;5.90;;;;;;;13.63;73.57;101149.47;5038547;28;20245;-72
2022/05/21 02:26:02;;;;;;;6.87;6.27;;;;;;;13.71;74.08;101152.97;5038723;28;20796;-72
2022/05/21 02:28:28;;;;;;;7.70;5.23;;;;;;;13.98;72.56;101148.69;5039138;28;20162;-71
2022/05/21 02:30:53;;;;;;;6.57;5.50;;;;;;;13.94;72.51;101141.69;5038714;28;20696;-71
2022/05/21 02:33:18;;;;;;;6.80;5.10;;;;;;;13.80;72.57;101149.50;5038398;28;20420;-71
2022/05/21 02:35:44;;;;;;;6.33;4.60;;;;;;;13.82;72.91;101153.88;5039060;28;20224;-72
2022/05/21 02:40:54;;;;;;;6.47;5.70;;;;;;;13.47;73.81;101161.63;5038559;28;20232;-71
2022/05/21 02:43:19;;;;;;;7.00;5.83;;;;;;;13.48;73.15;101143.28;5038225;28;20395;-67
2022/05/21 02:45:45;;;;;;;6.67;6.07;;;;;;;13.24;73.97;101153.63;5038340;28;20174;-66
2022/05/21 02:48:10;;;;;;;7.87;6.10;;;;;;;13.65;73.10;101158.19;5038625;28;20558;-66
2022/05/21 02:50:36;;;;;;;18.17;9.17;;;;;;;13.47;72.97;101148.53;5038412;28;20201;-65
2022/05/21 02:53:03;;;;;;;7.50;6.00;;;;;;;13.33;73.59;101148.44;5038100;28;20184;-66
2022/05/21 02:55:29;;;;;;;7.27;6.57;;;;;;;13.45;73.80;101156.38;5038102;28;20401;-64
2022/05/21 02:57:55;;;;;;;8.57;6.77;;;;;;;13.37;73.32;101146.72;5038233;28;20464;-65
2022/05/21 03:00:23;;;;;;;10.00;6.87;;;;;;;13.64;72.81;101153.84;5038180;28;20192;-65
2022/05/21 03:02:49;;;;;;;8.50;6.93;;;;;;;13.76;71.90;101150.38;5038463;28;20688;-66
2022/05/21 03:05:15;;;;;;;8.67;6.73;;;;;;;13.52;73.13;101165.13;5038148;28;20432;-66
2022/05/21 03:07:43;;;;;;;6.53;5.93;;;;;;;13.51;73.67;101155.53;5038120;28;20166;-66
2022/05/21 03:10:23;;;;;;;7.40;6.70;;;;;;;13.61;73.46;101164.28;5038605;28;20676;-66
2022/05/21 03:12:56;;;;;;;7.90;6.13;;;;;;;13.69;72.78;101157.31;5038006;28;20427;-66
2022/05/21 03:15:36;;;;;;;8.63;5.93;;;;;;;13.89;72.53;101152.16;5037969;28;20433;-66
2022/05/21 03:18:05;;;;;;;8.93;6.47;;;;;;;13.56;72.76;101147.69;5037276;28;20476;-66
2022/05/21 03:20:31;;;;;;;7.30;6.17;;;;;;;13.62;72.97;101145.94;5038255;28;20419;-66
2022/05/21 03:22:56;;;;;;;7.37;6.00;;;;;;;13.73;72.73;101147.75;5037874;28;20721;-65
2022/05/21 03:25:23;;;;;;;7.57;6.10;;;;;;;13.77;72.74;101150.41;5037993;28;20546;-66
2022/05/21 03:27:48;;;;;;;7.37;6.13;;;;;;;13.73;72.90;101151.22;5038266;28;20162;-66
2022/05/21 03:30:16;;;;;;;7.10;6.50;;;;;;;13.67;72.94;101153.84;5038064;28;20420;-66
2022/05/21 03:32:41;;;;;;;5.93;5.43;;;;;;;13.72;72.74;101146.88;5037806;28;20544;-65
2022/05/21 03:35:07;;;;;;;7.37;6.70;;;;;;;13.37;74.13;101142.38;5038070;28;20388;-65
2022/05/21 03:37:32;;;;;;;7.00;6.40;;;;;;;13.56;73.43;101139.84;5037655;28;20221;-65
2022/05/21 03:39:58;;;;;;;7.97;7.20;;;;;;;13.28;73.64;101139.69;5037980;28;20186;-66
2022/05/21 03:42:24;;;;;;;8.70;6.93;;;;;;;13.76;71.73;101135.53;5038181;28;20212;-66
2022/05/21 03:44:50;;;;;;;7.23;6.63;;;;;;;14.07;71.34;101132.09;5037671;28;20170;-66
2022/05/21 03:47:15;;;;;;;6.83;6.13;;;;;;;13.81;71.93;101131.19;5037625;28;20466;-67
2022/05/21 03:49:40;;;;;;;7.00;6.27;;;;;;;13.68;71.97;101126.78;5038113;28;20209;-66
2022/05/21 03:52:06;;;;;;;6.40;5.80;;;;;;;13.43;72.64;101126.66;5037468;28;20193;-66
2022/05/21 03:54:32;;;;;;;7.47;6.23;;;;;;;13.90;71.49;101126.84;5037631;28;20178;-66
2022/05/21 03:56:58;;;;;;;7.40;6.60;;;;;;;13.37;72.33;101133.63;5037291;28;20422;-66
2022/05/21 03:59:23;;;;;;;8.57;6.70;;;;;;;13.46;72.59;101136.28;5037790;28;20496;-66
2022/05/21 04:01:49;;;;;;;6.40;5.90;;;;;;;13.59;72.23;101135.47;5041118;28;20174;-66
2022/05/21 04:04:15;;;;;;;6.70;6.00;;;;;;;13.57;71.78;101144.19;5041700;28;20173;-65
2022/05/21 04:06:40;;;;;;;8.93;6.67;;;;;;;13.41;72.71;101148.47;5041260;28;20174;-66
2022/05/21 04:09:06;;;;;;;7.53;6.83;;;;;;;13.63;72.65;101141.59;5041485;28;20555;-66
2022/05/21 04:11:31;;;;;;;9.00;7.40;;;;;;;13.75;72.70;101140.78;5040878;28;20394;-66
2022/05/21 04:13:56;;;;;;;7.47;6.77;;;;;;;14.20;71.88;101138.25;5041028;28;20568;-66
2022/05/21 04:16:22;;;;;;;9.23;8.43;;;;;;;13.73;72.28;101130.25;5041007;28;20217;-66
2022/05/21 04:18:47;;;;;;;8.50;7.70;;;;;;;14.02;71.78;101132.09;5041666;28;20202;-65
2022/05/21 04:21:12;;;;;;;9.53;8.43;;;;;;;13.66;72.94;101132.88;5040990;28;20547;-66
2022/05/21 04:23:37;;;;;;;8.20;7.40;;;;;;;13.64;73.09;101131.13;5040701;28;20208;-65
2022/05/21 04:26:03;;;;;;;9.83;8.33;;;;;;;13.85;72.55;101139.91;5041305;28;20256;-66
2022/05/21 04:28:29;;;;;;;9.30;8.50;;;;;;;14.03;72.28;101135.56;5040778;28;20470;-66
2022/05/21 04:30:54;;;;;;;11.03;10.00;;;;;;;13.51;73.59;101125.84;5041034;28;20253;-67
2022/05/21 04:33:19;;;;;;;10.90;9.80;;;;;;;13.73;73.34;101117.16;5041336;28;20179;-66
2022/05/21 04:38:32;;;;;;;10.60;9.70;;;;;;;14.01;73.25;101126.84;5040926;28;20240;-66
2022/05/21 04:40:57;;;;;;;12.97;11.70;;;;;;;14.00;73.11;101117.22;5040837;28;20428;-65
2022/05/21 04:43:23;;;;;;;12.83;11.63;;;;;;;14.21;72.45;101119.00;5040677;28;20412;-66
2022/05/21 04:45:48;;;;;;;13.77;12.27;;;;;;;13.77;73.70;101116.31;5041263;28;20536;-65
2022/05/21 04:48:13;;;;;;;14.63;13.00;;;;;;;13.96;73.99;101124.22;5040645;28;20209;-66
2022/05/21 04:50:39;;;;;;;15.27;12.50;;;;;;;14.10;72.76;101117.25;5040643;28;20228;-67
2022/05/21 04:53:05;;;;;;;15.80;14.07;;;;;;;13.97;72.87;101118.09;5040936;28;20174;-66
2022/05/21 04:55:30;;;;;;;16.20;14.60;;;;;;;13.89;73.80;101118.06;5040619;28;20170;-66
2022/05/21 04:57:55;;;;;;;17.97;16.07;;;;;;;13.68;74.43;101113.69;5040622;28;20435;-66
2022/05/21 05:00:21;;;;;;;18.37;16.33;;;;;;;13.82;74.27;101109.31;5040858;28;20516;-66
2022/05/21 05:02:46;;;;;;;18.87;16.87;;;;;;;14.02;73.32;101108.50;5040333;28;20558;-65
2022/05/21 05:05:12;;;;;;;19.30;17.17;;;;;;;14.19;72.97;101115.50;5040236;28;20567;-66
2022/05/21 05:07:38;;;;;;;18.53;16.83;;;;;;;13.94;74.44;101110.25;5039960;28;20219;-65
2022/05/21 05:10:04;;;;;;;20.10;17.93;;;;;;;14.15;73.12;101104.13;5040263;28;20458;-66
2022/05/21 05:12:31;;;;;;;21.30;19.10;;;;;;;14.05;73.72;101110.25;5039855;28;20420;-66
2022/05/21 05:14:57;;;;;;;19.03;17.23;;;;;;;14.14;73.11;101105.88;5040366;28;20440;-66
2022/05/21 05:17:22;;;;;;;19.57;17.57;;;;;;;13.80;74.35;101110.19;5039847;28;20476;-66
2022/05/21 05:19:47;;;;;;;20.10;18.00;;;;;;;13.95;74.07;101110.25;5040066;28;20194;-66
2022/05/21 05:22:13;;;;;;;19.23;17.23;;;;;;;14.38;73.31;101098.03;5040415;28;20174;-66
2022/05/21 05:24:39;;;;;;;21.63;18.30;;;;;;;14.48;72.36;101095.38;5040067;28;20185;-66
2022/05/21 05:27:05;;;;;;;20.47;18.30;;;;;;;14.57;72.12;101099.78;5039811;28;20425;-65
2022/05/21 05:29:30;;;;;;;20.17;17.60;;;;;;;14.35;72.50;101096.28;5040333;28;20182;-66
2022/05/21 05:31:56;;;;;;;23.27;18.40;;;;;;;14.43;72.88;101105.00;5039566;28;20413;-66
2022/05/21 05:34:21;;;;;;;20.10;17.97;;;;;;;14.25;73.39;101100.66;5039604;28;20224;-66
2022/05/21 05:36:49;;;;;;;23.90;20.50;;;;;;;14.22;73.83;101110.25;5040344;28;20539;-66
2022/05/21 05:39:16;;;;;;;20.20;18.20;;;;;;;13.97;74.70;101110.22;5039739;28;20241;-66
2022/05/21 05:41:42;;;;;;;20.57;18.57;;;;;;;13.52;76.52;101114.47;5039704;28;20453;-66
2022/05/21 05:44:07;;;;;;;22.80;20.40;;;;;;;14.27;76.03;101100.66;5040086;28;20405;-66
2022/05/21 05:46:33;;;;;;;24.37;20.00;;;;;;;14.00;76.32;101110.22;5039560;28;20436;-67
2022/05/21 05:48:58;;;;;;;23.47;19.60;;;;;;;14.04;76.75;101106.75;5039353;28;20209;-66
2022/05/21 05:51:23;;;;;;;21.40;19.17;;;;;;;13.89;77.50;101115.47;5039887;28;20201;-65
2022/05/21 05:53:50;;;;;;;23.97;21.40;;;;;;;14.00;77.76;101120.72;5039299;28;20484;-66
2022/05/21 05:56:16;;;;;;;22.93;20.60;;;;;;;13.57;79.03;101111.03;5039463;28;20181;-66
2022/05/21 06:01:26;;;;;;;22.67;20.37;;;;;;;14.21;78.22;101092.78;5039097;28;20188;-66
2022/05/21 06:03:52;;;;;;;24.23;20.97;;;;;;;13.94;80.02;101099.75;5038916;28;20388;-66
2022/05/21 06:06:18;;;;;;;23.27;20.73;;;;;;;13.84;80.03;101103.22;5039157;28;20491;-66
2022/05/21 06:08:43;;;;;;;24.50;21.77;;;;;;;13.97;80.27;101100.63;5039127;28;20417;-67
2022/05/21 06:11:09;;;;;;;24.63;22.03;;;;;;;13.96;79.92;101105.84;5039636;28;20170;-67
2022/05/21 06:13:35;;;;;;;26.33;20.93;;;;;;;14.32;79.19;101106.78;5038903;28;20455;-67
2022/05/21 06:16:01;;;;;;;24.97;22.47;;;;;;;14.14;79.42;101103.25;5038957;28;20421;-66
2022/05/21 06:18:26;;;;;;;24.77;22.27;;;;;;;14.00;79.76;101105.00;5038713;28;20236;-66
2022/05/21 06:20:51;;;;;;;24.47;22.10;;;;;;;14.38;79.12;101108.50;5038947;28;20539;-66
2022/05/21 06:23:18;;;;;;;25.10;22.70;;;;;;;13.91;79.94;101104.97;5038478;28;20216;-66
2022/05/21 06:25:43;;;;;;;23.90;21.50;;;;;;;14.49;79.26;101093.63;5038928;28;20224;-66
2022/05/21 06:28:09;;;;;;;26.97;24.17;;;;;;;14.31;79.24;101099.78;5039192;28;20433;-66
2022/05/21 06:30:37;;;;;;;25.97;23.37;;;;;;;14.68;79.45;101105.03;5039217;28;20218;-66
2022/05/21 06:33:17;;;;;;;27.20;23.07;;;;;;;15.19;77.44;101104.03;5038590;28;20216;-67
2022/05/21 06:35:44;;;;;;;25.37;22.87;;;;;;;15.45;76.28;101104.78;5038607;28;20395;-67
2022/05/21 06:38:09;;;;;;;25.43;22.90;;;;;;;15.57;75.59;101087.22;5038502;28;20456;-68
2022/05/21 06:40:35;;;;;;;24.87;22.23;;;;;;;14.85;76.14;101091.88;5038550;28;20452;-67
2022/05/21 06:43:00;;;;;;;25.90;23.30;;;;;;;15.73;74.45;101086.22;5038794;28;20253;-67
2022/05/21 06:45:28;;;;;;;25.20;22.60;;;;;;;15.49;75.38;101095.13;5038482;28;20171;-67
2022/05/21 06:47:53;;;;;;;23.43;21.00;;;;;;;15.13;75.96;101097.91;5038537;28;20536;-67
2022/05/21 06:50:18;;;;;;;26.33;23.60;;;;;;;15.67;75.29;101088.91;5038742;28;20388;-67
2022/05/21 06:52:44;;;;;;;23.70;21.20;;;;;;;16.15;72.73;101081.56;5038209;28;20178;-66
2022/05/21 06:55:09;;;;;;;23.20;21.00;;;;;;;16.89;70.99;101084.44;5038445;28;20210;-66
2022/05/21 06:57:34;;;;;;;22.57;20.47;;;;;;;17.67;66.92;101082.56;5038682;28;20202;-67
2022/05/21 07:00:00;;;;;;;21.67;19.57;;;;;;;17.91;66.73;101077.84;5038328;28;20175;-66
2022/05/21 07:02:25;;;;;;;19.77;16.57;;;;;;;17.54;66.59;101075.75;5034545;28;20190;-66
2022/05/21 07:07:43;;;;;;;16.90;15.30;;;;;;;17.43;69.14;101079.41;5037042;28;20542;-71
2022/05/21 07:10:21;;;;;;;20.47;18.37;;;;;;;17.02;68.32;101082.53;5037941;28;20714;-71
2022/05/21 07:12:47;;;;;;;19.60;17.70;;;;;;;17.23;68.40;101086.69;5037733;28;20391;-70
2022/05/21 07:15:13;;;;;;;20.47;18.43;;;;;;;17.66;67.39;101072.94;5037891;28;20804;-68
2022/05/21 07:17:39;;;;;;;19.87;17.93;;;;;;;18.30;64.21;101078.13;5037712;28;20218;-70
2022/05/21 07:20:07;;;;;;;19.03;17.23;;;;;;;18.61;63.23;101075.81;5037959;28;20433;-69
2022/05/21 07:22:33;;;;;;;17.10;15.50;;;;;;;19.69;58.46;101068.31;5038110;28;20558;-67
2022/05/21 07:25:00;;;;;;;19.93;16.70;;;;;;;19.74;58.54;101075.28;5037954;28;20413;-70
2022/05/21 07:27:25;;;;;;;16.67;14.97;;;;;;;18.29;62.07;101071.97;5038013;28;20765;-68
2022/05/21 07:29:50;;;;;;;17.53;14.37;;;;;;;19.14;60.58;101070.38;5038190;28;20451;-68
2022/05/21 07:32:21;;;;;;;16.67;15.07;;;;;;;18.47;60.58;101076.06;5037740;28;20173;-68
2022/05/21 07:34:47;;;;;;;15.30;13.87;;;;;;;19.77;58.44;101067.25;5040516;28;20194;-69
2022/05/21 07:37:12;;;;;;;15.77;14.17;;;;;;;19.35;58.25;101069.06;5041309;28;20693;-72
2022/05/21 07:39:38;;;;;;;15.67;14.23;;;;;;;20.09;56.34;101058.56;5041656;28;20178;-70
2022/05/21 07:42:04;;;;;;;14.80;13.50;;;;;;;21.67;52.38;101047.13;5041783;28;20544;-69
2022/05/21 07:44:30;;;;;;;14.17;12.87;;;;;;;21.56;51.91;101051.06;5042367;28;20405;-70
2022/05/21 07:46:55;;;;;;;13.50;12.30;;;;;;;22.71;49.97;101049.00;5041740;28;20174;-68
2022/05/21 07:49:20;;;;;;;12.97;11.67;;;;;;;20.53;55.19;101063.66;5041577;28;20178;-69
2022/05/21 07:51:46;;;;;;;13.80;11.83;;;;;;;19.30;58.62;101068.31;5041988;28;20435;-69
2022/05/21 07:54:11;;;;;;;14.23;12.77;;;;;;;18.67;60.10;101058.97;5041410;28;20189;-71
2022/05/21 07:56:36;;;;;;;13.57;12.10;;;;;;;18.39;61.46;101063.88;5041293;28;20197;-69
2022/05/21 07:59:02;;;;;;;14.10;12.77;;;;;;;18.75;60.69;101064.97;5041837;28;20205;-69
2022/05/21 08:01:27;;;;;;;12.80;11.70;;;;;;;17.70;62.37;101066.72;5041447;28;20178;-69
2022/05/21 08:03:52;;;;;;;13.20;11.83;;;;;;;17.22;64.63;101061.22;5041203;28;20178;-70
2022/05/21 08:06:18;;;;;;;12.33;11.20;;;;;;;16.96;67.92;101076.44;5040804;28;20174;-70
2022/05/21 08:08:44;;;;;;;12.63;11.30;;;;;;;16.50;69.44;101077.78;5041323;28;20181;-68
2022/05/21 08:11:09;;;;;;;14.67;11.90;;;;;;;16.63;69.84;101072.41;5041270;28;20170;-67
2022/05/21 08:13:35;;;;;;;12.67;11.30;;;;;;;16.47;70.11;101067.28;5041469;28;20429;-66
2022/05/21 08:16:01;;;;;;;12.97;11.67;;;;;;;16.70;70.58;101062.66;5041180;28;20174;-67
2022/05/21 08:18:27;;;;;;;14.63;12.93;;;;;;;16.51;71.67;101060.25;5041109;28;20618;-64
2022/05/21 08:20:54;;;;;;;13.80;12.40;;;;;;;16.15;72.64;101070.19;5040915;28;20407;-69
2022/05/21 08:28:49;;;;;;;13.77;9.20;;;;;;;15.39;74.47;101099.56;5041004;28;20440;-63
2022/05/21 08:31:14;;;;;;;12.33;8.43;;;;;;;15.48;75.18;101120.53;5040311;28;20991;-64
2022/05/21 08:33:39;;;;;;;7.43;6.73;;;;;;;16.14;72.96;101115.78;5040650;28;20420;-65
2022/05/21 08:36:05;;;;;;;8.30;6.70;;;;;;;16.86;70.33;101098.50;5040749;28;20175;-66
2022/05/21 08:38:30;;;;;;;7.27;6.57;;;;;;;17.30;67.97;101107.66;5041018;28;20549;-65
2022/05/21 08:41:11;;;;;;;11.73;6.27;;;;;;;17.22;68.90;101113.94;5040740;28;20171;-64
2022/05/21 08:43:55;;;;;;;7.30;5.73;;;;;;;16.80;69.97;101117.84;5040631;28;20186;-65
2022/05/21 08:46:47;;;;;;;8.47;5.03;;;;;;;16.51;72.05;101128.66;5039983;28;20384;-64
2022/05/21 08:49:35;;;;;;;6.93;4.60;;;;;;;15.98;73.74;101134.31;5040060;28;20420;-65
2022/05/21 08:52:22;;;;;;;6.43;4.60;;;;;;;15.68;76.43;101143.22;5040429;28;20392;-66
2022/05/21 08:54:49;;;;;;;5.07;4.30;;;;;;;15.85;75.78;101139.69;5040542;28;20387;-66
2022/05/21 08:57:30;;;;;;;4.63;3.97;;;;;;;15.83;75.25;101145.81;5039696;28;20409;-66
2022/05/21 09:00:07;;;;;;;4.27;3.87;;;;;;;15.87;75.04;101138.78;5040348;28;20387;-66
2022/05/21 09:02:34;;;;;;;4.40;4.00;;;;;;;16.11;74.54;101140.34;5039506;28;20508;-65
2022/05/21 09:05:00;;;;;;;4.77;4.00;;;;;;;15.93;74.36;101140.50;5039554;28;20427;-66
2022/05/21 09:07:29;;;;;;;6.33;4.50;;;;;;;16.28;73.48;101147.28;5040130;28;20394;-66
2022/05/21 09:10:11;;;;;;;8.53;4.10;;;;;;;16.18;74.24;101151.72;5040205;28;20457;-67
2022/05/21 09:12:45;;;;;;;8.03;4.10;;;;;;;16.21;73.82;101153.44;5038677;28;20461;-65
2022/05/21 09:16:54;;;;;;;7.57;4.60;;;;;;;15.68;74.80;101153.72;5039846;28;20460;-64
2022/05/21 09:18:06;;;;;;;5.63;4.40;;;;;;;15.80;74.53;101165.97;5039470;28;20571;-65
2022/05/21 09:20:36;;;;;;;5.20;4.30;;;;;;;15.79;74.24;101151.03;5039931;28;20442;-65
2022/05/21 09:23:02;;;;;;;10.10;5.30;;;;;;;16.04;74.28;101161.47;5039051;28;20815;-66
2022/05/21 09:25:27;;;;;;;8.57;4.70;;;;;;;16.26;73.91;101164.81;5039715;28;20469;-67
2022/05/21 09:28:04;;;;;;;8.90;4.30;;;;;;;17.56;70.02;101167.06;5040077;28;20177;-67
2022/05/21 09:30:37;;;;;;;8.43;4.20;;;;;;;17.38;68.34;101165.53;5039706;28;20194;-68
2022/05/21 09:33:34;;;;;;;5.97;3.73;;;;;;;19.33;63.41;101158.09;5039490;28;20475;-67
2022/05/21 09:36:00;;;;;;;6.30;3.80;;;;;;;18.82;63.24;101159.06;5039207;28;20429;-68
2022/05/21 09:38:32;;;;;;;4.63;3.60;;;;;;;19.62;62.10;101163.69;5039722;28;20479;-68
2022/05/21 09:41:14;;;;;;;4.50;3.07;;;;;;;18.44;63.41;101157.97;5039649;28;20240;-66
2022/05/21 09:46:34;;;;;;;5.60;3.50;;;;;;;19.69;59.14;101165.34;5038790;28;20742;-67
2022/05/21 09:49:22;;;;;;;5.17;3.40;;;;;;;20.43;56.00;101162.78;5038621;28;20425;-69
2022/05/21 09:51:57;;;;;;;4.80;3.00;;;;;;;19.85;56.61;101163.25;5039038;28;20174;-67
2022/05/21 09:54:26;;;;;;;3.97;3.17;;;;;;;18.69;60.07;101168.09;5039217;28;20463;-67
2022/05/21 09:56:53;;;;;;;5.50;3.10;;;;;;;18.52;60.34;101177.19;5038684;28;20693;-66
2022/05/21 09:59:24;;;;;;;6.10;3.00;;;;;;;18.43;62.19;101184.34;5038565;28;20520;-66
2022/05/21 10:01:55;;;;;;;3.87;2.80;;;;;;;17.94;61.78;101196.50;5039276;28;20440;-66
2022/05/21 10:04:33;;;;;;;4.73;3.17;;;;;;;17.40;62.66;101190.13;5039190;28;20392;-66
2022/05/21 10:07:09;;;;;;;6.77;3.43;;;;;;;17.08;64.48;101206.28;5039248;28;20682;-67
2022/05/21 10:12:34;;;;;;;4.30;3.10;;;;;;;18.20;61.88;101208.47;5038854;28;20451;-66
2022/05/21 10:15:04;;;;;;;6.90;3.13;;;;;;;17.49;61.34;101205.84;5038413;28;20428;-67
2022/05/21 10:17:57;;;;;;;5.10;3.67;;;;;;;19.33;57.16;101210.13;5038647;28;20500;-66
2022/05/21 10:20:26;;;;;;;7.33;3.30;;;;;;;20.24;52.68;101200.31;5038412;28;20474;-66
2022/05/21 10:23:04;;;;;;;5.70;3.43;;;;;;;20.40;53.04;101207.88;5038085;28;20810;-67
2022/05/21 10:25:42;;;;;;;11.60;3.70;;;;;;;20.49;52.73;101212.97;5038108;28;20833;-66
2022/05/21 10:28:42;;;;;;;6.70;3.60;;;;;;;20.91;50.48;101204.88;5038844;28;20409;-66
2022/05/21 10:31:31;;;;;;;5.07;3.13;;;;;;;19.76;52.29;101222.47;5037287;28;20431;-67
2022/05/21 10:34:18;;;;;;;6.37;3.33;;;;;;;21.44;49.50;101220.22;5038439;28;20681;-66
2022/05/21 10:37:02;;;;;;;6.57;3.60;;;;;;;21.82;49.01;101222.72;5037744;28;20397;-66
2022/05/21 10:39:59;;;;;;;7.17;3.40;;;;;;;21.11;50.04;101227.34;5038425;28;20727;-66
2022/05/21 10:42:47;;;;;;;5.00;2.90;;;;;;;21.39;48.49;101214.19;5037783;28;20421;-66
2022/05/21 10:45:25;;;;;;;6.23;3.60;;;;;;;20.52;48.20;101228.78;5038462;28;20814;-67
2022/05/21 10:48:17;;;;;;;5.67;3.37;;;;;;;21.81;46.72;101221.88;5037895;28;20475;-67
2022/05/21 10:50:55;;;;;;;6.10;3.00;;;;;;;20.78;48.12;101230.84;5037708;28;20447;-66
2022/05/21 10:53:44;;;;;;;5.43;3.30;;;;;;;20.83;47.68;101241.31;5038272;28;20435;-65
2022/05/21 10:56:34;;;;;;;6.73;3.47;;;;;;;20.82;47.84;101229.84;5037647;28;20417;-67
2022/05/21 10:59:11;;;;;;;8.87;3.20;;;;;;;21.51;46.45;101232.44;5037669;28;20775;-66
2022/05/21 11:01:50;;;;;;;4.23;2.93;;;;;;;21.93;45.27;101238.34;5038249;28;20443;-67
2022/05/21 11:04:18;;;;;;;3.23;2.90;;;;;;;21.80;44.30;101227.22;5037628;28;20413;-66
2022/05/21 11:07:06;;;;;;;3.50;3.20;;;;;;;22.79;43.00;101235.63;5038096;28;20427;-66
2022/05/21 11:09:46;;;;;;;3.57;3.07;;;;;;;21.68;44.29;101239.06;5037120;28;20409;-66
2022/05/21 11:12:28;;;;;;;4.87;2.63;;;;;;;22.31;42.68;101244.25;5037207;28;20468;-67
2022/05/21 11:15:12;;;;;;;4.80;3.03;;;;;;;21.96;43.55;101254.16;5037399;28;20726;-66
2022/05/21 11:17:52;;;;;;;5.30;3.50;;;;;;;21.79;44.23;101247.56;5037897;28;20752;-67
2022/05/21 11:20:22;;;;;;;5.90;3.30;;;;;;;21.56;43.48;101250.88;5037196;28;20437;-66
2022/05/21 11:23:06;;;;;;;6.20;3.40;;;;;;;21.85;43.60;101250.06;5037954;28;20421;-66
2022/05/21 11:25:41;;;;;;;3.73;2.70;;;;;;;21.32;44.80;101255.91;5038036;28;20435;-66
2022/05/21 11:28:24;;;;;;;4.10;3.27;;;;;;;20.83;46.15;101260.72;5037799;28;20416;-66
2022/05/21 11:37:18;;;;;;;5.90;3.30;;;;;;;20.33;45.42;101265.41;5038141;28;20829;-66
2022/05/21 11:39:31;;;;;;;5.47;3.20;;;;;;;20.35;47.17;101271.56;5037188;28;20548;-66
2022/05/21 11:42:00;;;;;;;7.70;3.23;;;;;;;19.72;47.12;101273.72;5036810;28;20787;-65
2022/05/21 11:45:01;;;;;;;4.33;3.10;;;;;;;19.97;45.70;101278.53;5037641;28;20230;-65
2022/05/21 11:47:27;;;;;;;7.33;3.30;;;;;;;19.66;47.04;101284.41;5037167;28;20537;-66
2022/05/21 11:49:58;;;;;;;5.70;3.00;;;;;;;20.26;45.81;101283.22;5037753;28;20436;-67
2022/05/21 11:52:26;;;;;;;4.33;2.97;;;;;;;20.70;44.35;101280.47;5037309;28;20173;-66
2022/05/21 11:54:51;;;;;;;4.77;3.13;;;;;;;20.85;43.79;101287.16;5038106;28;20496;-66
2022/05/21 11:57:30;;;;;;;5.70;3.00;;;;;;;19.93;45.89;101284.78;5037622;28;20436;-66